createdAt,value
2022-09-06T00:02:34.000Z,8.79
2022-09-06T00:07:35.000Z,8.73
2022-09-06T00:12:34.000Z,8.67
2022-09-06T00:17:34.000Z,8.58
2022-09-06T00:22:35.000Z,8.4
2022-09-06T00:27:35.000Z,8.21
2022-09-06T00:32:34.000Z,8.05
2022-09-06T00:37:35.000Z,8.06
2022-09-06T00:42:35.000Z,8.18
2022-09-06T00:47:35.000Z,8.15
2022-09-06T00:52:35.000Z,8.15
2022-09-06T00:57:35.000Z,8.15
2022-09-06T01:02:35.000Z,8.09
2022-09-06T01:07:34.000Z,8.04
2022-09-06T01:12:34.000Z,7.98
2022-09-06T01:17:35.000Z,7.93
2022-09-06T01:22:35.000Z,7.91
2022-09-06T01:27:34.000Z,7.92
2022-09-06T01:32:34.000Z,7.82
2022-09-06T01:37:34.000Z,7.77
2022-09-06T01:42:34.000Z,7.67
2022-09-06T01:47:35.000Z,7.77
2022-09-06T01:52:35.000Z,7.86
2022-09-06T02:02:35.000Z,8.01
2022-09-06T02:07:34.000Z,8.03
2022-09-06T02:12:35.000Z,8.14
2022-09-06T02:17:35.000Z,8.27
2022-09-06T02:22:34.000Z,8.42
2022-09-06T02:27:35.000Z,8.4
2022-09-06T02:32:35.000Z,8.4
2022-09-06T02:37:34.000Z,8.43
2022-09-06T02:42:35.000Z,8.41
2022-09-06T02:47:35.000Z,8.33
2022-09-06T02:52:34.000Z,8.26
2022-09-06T02:57:34.000Z,8.37
2022-09-06T03:02:35.000Z,8.48
2022-09-06T03:07:35.000Z,8.54
2022-09-06T03:12:35.000Z,8.33
2022-09-06T03:17:35.000Z,8.25
2022-09-06T03:22:35.000Z,8.22
2022-09-06T03:27:34.000Z,8.21
2022-09-06T03:32:35.000Z,8.16
2022-09-06T03:37:35.000Z,8.15
2022-09-06T03:42:35.000Z,8.15
2022-09-06T03:47:35.000Z,8.1
2022-09-06T03:52:35.000Z,8.18
2022-09-06T03:57:35.000Z,8.21
2022-09-06T04:02:34.000Z,8.25
2022-09-06T04:07:35.000Z,8.38
2022-09-06T04:12:34.000Z,8.64
2022-09-06T04:17:34.000Z,8.87
2022-09-06T04:22:34.000Z,8.96
2022-09-06T04:27:35.000Z,9.08
2022-09-06T04:32:34.000Z,9.04
2022-09-06T04:37:35.000Z,9.23
2022-09-06T04:42:35.000Z,9.34
2022-09-06T04:47:34.000Z,9.41
2022-09-06T04:52:40.000Z,9.53
2022-09-06T04:57:34.000Z,9.53
2022-09-06T05:02:35.000Z,9.7
2022-09-06T05:07:35.000Z,9.72
2022-09-06T05:12:34.000Z,9.64
2022-09-06T05:17:34.000Z,9.83
2022-09-06T05:22:35.000Z,10.01
2022-09-06T05:27:34.000Z,10.25
2022-09-06T05:32:35.000Z,10.18
2022-09-06T05:37:35.000Z,10.39
2022-09-06T05:42:35.000Z,10.47
2022-09-06T05:47:35.000Z,10.57
2022-09-06T05:52:34.000Z,10.78
2022-09-06T05:57:34.000Z,10.94
2022-09-06T06:02:35.000Z,10.92
2022-09-06T06:07:34.000Z,11.02
2022-09-06T06:12:35.000Z,10.84
2022-09-06T06:17:35.000Z,10.84
2022-09-06T06:22:35.000Z,10.4
2022-09-06T06:32:35.000Z,10.19
2022-09-06T06:37:35.000Z,10.63
2022-09-06T06:42:35.000Z,10.72
2022-09-06T06:47:34.000Z,10.83
2022-09-06T06:52:35.000Z,11.02
2022-09-06T06:57:34.000Z,11.18
2022-09-06T07:02:35.000Z,11.18
2022-09-06T07:07:45.000Z,11.61
2022-09-06T07:12:34.000Z,12.4
2022-09-06T07:17:35.000Z,12.88
2022-09-06T07:22:35.000Z,12.39
2022-09-06T07:28:00.000Z,12.53
2022-09-06T07:32:35.000Z,15.38
2022-09-06T07:42:35.000Z,15.57
2022-09-06T07:48:05.000Z,14.17
2022-09-06T07:57:35.000Z,14.05
2022-09-06T08:02:35.000Z,13.79
2022-09-06T08:17:35.000Z,12.9
2022-09-06T08:22:34.000Z,12.91
2022-09-06T08:27:35.000Z,12.91
2022-09-06T08:32:35.000Z,13.42
2022-09-06T08:37:35.000Z,14.33
2022-09-06T08:42:34.000Z,14.35
2022-09-06T08:52:34.000Z,14.87
2022-09-06T08:57:34.000Z,14.08
2022-09-06T09:02:34.000Z,14.18
2022-09-06T09:07:35.000Z,14.36
2022-09-06T09:12:35.000Z,13.91
2022-09-06T09:17:35.000Z,13.76
2022-09-06T09:27:35.000Z,14.42
2022-09-06T09:32:34.000Z,14.43
2022-09-06T09:38:00.000Z,14.14
2022-09-06T09:42:35.000Z,13.65
2022-09-06T09:47:35.000Z,13.74
2022-09-06T09:52:34.000Z,13.93
2022-09-06T09:57:34.000Z,14.08
2022-09-06T10:02:35.000Z,14.22
2022-09-06T10:07:35.000Z,13.96
2022-09-06T10:12:34.000Z,13.9
2022-09-06T10:17:35.000Z,13.82
2022-09-06T10:22:35.000Z,13.66
2022-09-06T10:27:35.000Z,13.66
2022-09-06T10:32:39.000Z,13.43
2022-09-06T10:37:35.000Z,13.33
2022-09-06T10:42:34.000Z,13.09
2022-09-06T10:47:35.000Z,13.15
2022-09-06T10:52:35.000Z,13.49
2022-09-06T10:58:05.000Z,13.68
2022-09-06T11:02:35.000Z,13.55
2022-09-06T11:07:35.000Z,13.8
2022-09-06T11:12:35.000Z,14.36
2022-09-06T11:17:34.000Z,14.27
2022-09-06T11:22:35.000Z,13.73
2022-09-06T11:27:35.000Z,13.45
2022-09-06T11:32:35.000Z,13.54
2022-09-06T11:37:34.000Z,13.54
2022-09-06T11:47:34.000Z,13.2
2022-09-06T11:52:35.000Z,12.69
2022-09-06T11:57:35.000Z,12.46
2022-09-06T12:02:35.000Z,12.25
2022-09-06T12:07:35.000Z,12.5
2022-09-06T12:12:34.000Z,12.71
2022-09-06T12:17:34.000Z,12.71
2022-09-06T12:22:35.000Z,12.79
2022-09-06T12:27:34.000Z,12.81
2022-09-06T12:32:35.000Z,12.78
2022-09-06T12:37:34.000Z,12.45
2022-09-06T12:42:35.000Z,12.62
2022-09-06T12:47:35.000Z,12.82
2022-09-06T12:52:35.000Z,12.76
2022-09-06T12:57:35.000Z,12.85
2022-09-06T13:02:35.000Z,12.62
2022-09-06T13:07:35.000Z,12.71
2022-09-06T13:12:35.000Z,12.64
2022-09-06T13:17:34.000Z,12.62
2022-09-06T13:22:35.000Z,12.73
2022-09-06T13:27:34.000Z,12.52
2022-09-06T13:32:34.000Z,12.52
2022-09-06T13:37:35.000Z,12.35
2022-09-06T13:42:35.000Z,12.16
2022-09-06T13:47:35.000Z,12.1
2022-09-06T13:52:35.000Z,12.02
2022-09-06T13:57:34.000Z,12.05
2022-09-06T14:02:35.000Z,12.4
2022-09-06T14:07:36.000Z,12.7
2022-09-06T14:17:34.000Z,12.83
2022-09-06T14:22:35.000Z,12.73
2022-09-06T14:27:35.000Z,12.57
2022-09-06T14:32:35.000Z,12.6
2022-09-06T14:37:34.000Z,12.62
2022-09-06T14:42:34.000Z,12.42
2022-09-06T14:47:35.000Z,11.89
2022-09-06T14:52:35.000Z,11.57
2022-09-06T14:57:35.000Z,11.19
2022-09-06T15:02:35.000Z,10.81
2022-09-06T15:07:35.000Z,10.49
2022-09-06T15:12:35.000Z,10.49
2022-09-06T15:17:35.000Z,10.49
2022-09-06T15:22:35.000Z,10.49
2022-09-06T15:27:35.000Z,10.64
2022-09-06T15:32:35.000Z,10.73
2022-09-06T15:42:35.000Z,10.98
2022-09-06T15:47:34.000Z,10.96
2022-09-06T15:52:34.000Z,10.78
2022-09-06T15:57:35.000Z,10.78
2022-09-06T16:02:35.000Z,10.78
2022-09-06T16:07:34.000Z,10.82
2022-09-06T16:12:35.000Z,10.77
2022-09-06T16:17:35.000Z,10.75
2022-09-06T16:27:34.000Z,10.84
2022-09-06T16:32:35.000Z,10.79
2022-09-06T16:37:34.000Z,10.66
2022-09-06T16:42:34.000Z,10.69
2022-09-06T16:47:35.000Z,10.71
2022-09-06T16:52:35.000Z,10.76
2022-09-06T16:57:35.000Z,10.76
2022-09-06T17:02:35.000Z,10.76
2022-09-06T17:07:35.000Z,10.66
2022-09-06T17:12:35.000Z,10.6
2022-09-06T17:17:35.000Z,10.6
2022-09-06T17:22:34.000Z,10.57
2022-09-06T17:27:35.000Z,10.45
2022-09-06T17:32:35.000Z,10.5
2022-09-06T17:37:34.000Z,10.58
2022-09-06T17:42:35.000Z,10.66
2022-09-06T17:47:35.000Z,10.74
2022-09-06T17:52:34.000Z,10.73
2022-09-06T17:57:35.000Z,10.7
2022-09-06T18:02:34.000Z,10.74
2022-09-06T18:07:35.000Z,10.74
2022-09-06T18:12:34.000Z,10.7
2022-09-06T18:17:35.000Z,10.64
2022-09-06T18:22:35.000Z,10.57
2022-09-06T18:27:34.000Z,10.52
2022-09-06T18:32:35.000Z,10.52
2022-09-06T18:37:34.000Z,10.53
2022-09-06T18:42:34.000Z,10.52
2022-09-06T18:47:35.000Z,10.44
2022-09-06T18:52:34.000Z,10.44
2022-09-06T18:57:35.000Z,10.47
2022-09-06T19:02:35.000Z,10.41
2022-09-06T19:07:35.000Z,10.4
2022-09-06T19:12:35.000Z,10.51
2022-09-06T19:22:35.000Z,10.5
2022-09-06T19:37:35.000Z,10.35
2022-09-06T19:42:35.000Z,10.27
2022-09-06T19:47:35.000Z,10.26
2022-09-06T19:52:34.000Z,10.22
2022-09-06T19:57:35.000Z,10.15
2022-09-06T20:02:34.000Z,10.17
2022-09-06T20:07:35.000Z,10.15
2022-09-06T20:12:34.000Z,10.1
2022-09-06T20:17:44.000Z,10.04
2022-09-06T20:22:35.000Z,10
2022-09-06T20:27:34.000Z,9.97
2022-09-06T20:32:34.000Z,9.98
2022-09-06T20:42:34.000Z,9.93
2022-09-06T20:47:34.000Z,9.83
2022-09-06T20:52:35.000Z,9.74
2022-09-06T20:57:35.000Z,9.68
2022-09-06T21:02:35.000Z,9.68
2022-09-06T21:07:35.000Z,9.66
2022-09-06T21:12:34.000Z,9.71
2022-09-06T21:17:34.000Z,9.74
2022-09-06T21:22:34.000Z,9.7
2022-09-06T21:27:35.000Z,9.75
2022-09-06T21:32:34.000Z,9.71
2022-09-06T21:37:35.000Z,9.7
2022-09-06T21:42:35.000Z,9.74
2022-09-06T21:47:35.000Z,9.7
2022-09-06T21:52:35.000Z,9.68
2022-09-06T21:57:34.000Z,9.65
2022-09-06T22:02:34.000Z,9.61
2022-09-06T22:07:35.000Z,9.6
2022-09-06T22:12:35.000Z,9.57
2022-09-06T22:17:34.000Z,9.57
2022-09-06T22:22:34.000Z,9.63
2022-09-06T22:27:34.000Z,9.69
2022-09-06T22:32:35.000Z,9.74
2022-09-06T22:37:35.000Z,9.66
2022-09-06T22:42:34.000Z,9.51
2022-09-06T22:47:35.000Z,9.47
2022-09-06T22:52:35.000Z,9.36
2022-09-06T22:57:34.000Z,9.39
2022-09-06T23:02:35.000Z,9.38
2022-09-06T23:07:35.000Z,9.4
2022-09-06T23:12:34.000Z,9.23
2022-09-06T23:17:35.000Z,9.13
2022-09-06T23:22:34.000Z,9.05
2022-09-06T23:27:35.000Z,8.97
2022-09-06T23:32:35.000Z,8.97
2022-09-06T23:37:34.000Z,8.88
2022-09-06T23:42:35.000Z,8.93
2022-09-06T23:47:35.000Z,8.93
2022-09-06T23:52:34.000Z,8.91
2022-09-06T23:57:34.000Z,8.92
